sensor_id;sensor_type;location;lat;lon;timestamp;P1;durP1;ratioP1;P2;durP2;ratioP2
22191;SDS011;11261;52.456;10.850;2023-07-20T00:00:51;2.25;;;1.20;;
22191;SDS011;11261;52.456;10.850;2023-07-20T00:03:20;2.15;;;1.20;;
22191;SDS011;11261;52.456;10.850;2023-07-20T00:05:49;2.20;;;1.30;;
22191;SDS011;11261;52.456;10.850;2023-07-20T00:08:18;2.70;;;1.40;;
22191;SDS011;11261;52.456;10.850;2023-07-20T00:10:47;1.27;;;1.17;;
22191;SDS011;11261;52.456;10.850;2023-07-20T00:13:16;1.17;;;1.08;;
22191;SDS011;11261;52.456;10.850;2023-07-20T00:15:45;1.35;;;1.25;;
22191;SDS011;11261;52.456;10.850;2023-07-20T00:18:13;1.40;;;0.95;;
22191;SDS011;11261;52.456;10.850;2023-07-20T00:20:42;3.17;;;1.20;;
22191;SDS011;11261;52.456;10.850;2023-07-20T00:23:10;1.10;;;1.00;;
22191;SDS011;11261;52.456;10.850;2023-07-20T00:25:38;2.55;;;1.48;;
22191;SDS011;11261;52.456;10.850;2023-07-20T00:28:08;1.83;;;1.35;;
22191;SDS011;11261;52.456;10.850;2023-07-20T00:30:37;1.92;;;1.00;;
22191;SDS011;11261;52.456;10.850;2023-07-20T00:33:06;3.95;;;1.35;;
22191;SDS011;11261;52.456;10.850;2023-07-20T00:35:38;2.08;;;1.20;;
22191;SDS011;11261;52.456;10.850;2023-07-20T00:38:06;3.95;;;1.20;;
22191;SDS011;11261;52.456;10.850;2023-07-20T00:40:35;1.00;;;0.82;;
22191;SDS011;11261;52.456;10.850;2023-07-20T00:43:04;2.08;;;1.00;;
22191;SDS011;11261;52.456;10.850;2023-07-20T00:45:34;1.30;;;1.17;;
22191;SDS011;11261;52.456;10.850;2023-07-20T00:48:04;1.70;;;1.00;;
22191;SDS011;11261;52.456;10.850;2023-07-20T00:50:33;1.15;;;0.88;;
22191;SDS011;11261;52.456;10.850;2023-07-20T00:53:02;1.02;;;0.90;;
22191;SDS011;11261;52.456;10.850;2023-07-20T00:55:32;1.83;;;0.85;;
22191;SDS011;11261;52.456;10.850;2023-07-20T00:58:01;3.35;;;1.10;;
22191;SDS011;11261;52.456;10.850;2023-07-20T01:00:30;1.48;;;1.20;;
22191;SDS011;11261;52.456;10.850;2023-07-20T01:03:00;2.38;;;1.20;;
22191;SDS011;11261;52.456;10.850;2023-07-20T01:05:31;1.00;;;0.90;;
22191;SDS011;11261;52.456;10.850;2023-07-20T01:08:07;2.35;;;1.15;;
22191;SDS011;11261;52.456;10.850;2023-07-20T01:10:43;0.98;;;0.98;;
22191;SDS011;11261;52.456;10.850;2023-07-20T01:13:15;1.55;;;1.17;;
22191;SDS011;11261;52.456;10.850;2023-07-20T01:15:48;2.05;;;1.10;;
22191;SDS011;11261;52.456;10.850;2023-07-20T01:18:19;1.13;;;1.02;;
22191;SDS011;11261;52.456;10.850;2023-07-20T01:20:47;1.30;;;1.20;;
22191;SDS011;11261;52.456;10.850;2023-07-20T01:23:22;1.10;;;1.00;;
22191;SDS011;11261;52.456;10.850;2023-07-20T01:26:18;1.50;;;0.98;;
22191;SDS011;11261;52.456;10.850;2023-07-20T01:31:56;1.27;;;1.02;;
22191;SDS011;11261;52.456;10.850;2023-07-20T01:34:25;2.03;;;1.13;;
22191;SDS011;11261;52.456;10.850;2023-07-20T01:36:54;1.10;;;1.00;;
22191;SDS011;11261;52.456;10.850;2023-07-20T01:39:24;1.88;;;1.17;;
22191;SDS011;11261;52.456;10.850;2023-07-20T01:41:53;2.95;;;1.20;;
22191;SDS011;11261;52.456;10.850;2023-07-20T01:44:22;3.42;;;1.23;;
22191;SDS011;11261;52.456;10.850;2023-07-20T01:46:50;1.08;;;0.98;;
22191;SDS011;11261;52.456;10.850;2023-07-20T01:49:19;1.08;;;0.95;;
22191;SDS011;11261;52.456;10.850;2023-07-20T01:51:47;2.40;;;1.27;;
22191;SDS011;11261;52.456;10.850;2023-07-20T01:54:16;1.10;;;1.00;;
22191;SDS011;11261;52.456;10.850;2023-07-20T01:56:44;1.08;;;0.88;;
22191;SDS011;11261;52.456;10.850;2023-07-20T01:59:12;1.30;;;0.98;;
22191;SDS011;11261;52.456;10.850;2023-07-20T02:01:40;0.90;;;0.85;;
22191;SDS011;11261;52.456;10.850;2023-07-20T02:04:09;1.20;;;1.10;;
22191;SDS011;11261;52.456;10.850;2023-07-20T02:06:39;1.70;;;0.90;;
22191;SDS011;11261;52.456;10.850;2023-07-20T02:09:07;1.70;;;1.00;;
22191;SDS011;11261;52.456;10.850;2023-07-20T02:11:36;1.23;;;0.90;;
22191;SDS011;11261;52.456;10.850;2023-07-20T02:14:04;2.03;;;1.20;;
22191;SDS011;11261;52.456;10.850;2023-07-20T02:16:32;1.55;;;1.05;;
22191;SDS011;11261;52.456;10.850;2023-07-20T02:19:00;4.40;;;1.17;;
22191;SDS011;11261;52.456;10.850;2023-07-20T02:21:30;2.95;;;1.08;;
22191;SDS011;11261;52.456;10.850;2023-07-20T02:23:59;1.13;;;0.90;;
22191;SDS011;11261;52.456;10.850;2023-07-20T02:26:28;1.10;;;1.00;;
22191;SDS011;11261;52.456;10.850;2023-07-20T02:28:56;1.42;;;1.10;;
22191;SDS011;11261;52.456;10.850;2023-07-20T02:31:24;1.70;;;1.02;;
22191;SDS011;11261;52.456;10.850;2023-07-20T02:33:53;1.13;;;1.00;;
22191;SDS011;11261;52.456;10.850;2023-07-20T02:36:21;1.27;;;1.02;;
22191;SDS011;11261;52.456;10.850;2023-07-20T02:38:50;2.97;;;1.20;;
22191;SDS011;11261;52.456;10.850;2023-07-20T02:41:20;1.20;;;1.05;;
22191;SDS011;11261;52.456;10.850;2023-07-20T02:43:48;1.88;;;1.13;;
22191;SDS011;11261;52.456;10.850;2023-07-20T02:46:16;2.25;;;0.82;;
22191;SDS011;11261;52.456;10.850;2023-07-20T02:48:45;2.50;;;1.10;;
22191;SDS011;11261;52.456;10.850;2023-07-20T02:51:13;1.40;;;1.30;;
22191;SDS011;11261;52.456;10.850;2023-07-20T02:53:41;1.10;;;1.00;;
22191;SDS011;11261;52.456;10.850;2023-07-20T02:56:10;3.50;;;1.08;;
22191;SDS011;11261;52.456;10.850;2023-07-20T02:58:41;2.15;;;1.02;;
22191;SDS011;11261;52.456;10.850;2023-07-20T03:01:12;1.35;;;1.05;;
22191;SDS011;11261;52.456;10.850;2023-07-20T03:03:42;1.20;;;0.98;;
22191;SDS011;11261;52.456;10.850;2023-07-20T03:06:12;2.65;;;1.20;;
22191;SDS011;11261;52.456;10.850;2023-07-20T03:08:41;1.30;;;1.20;;
22191;SDS011;11261;52.456;10.850;2023-07-20T03:11:14;2.15;;;0.90;;
22191;SDS011;11261;52.456;10.850;2023-07-20T03:13:44;1.40;;;1.20;;
22191;SDS011;11261;52.456;10.850;2023-07-20T03:16:13;1.10;;;1.00;;
22191;SDS011;11261;52.456;10.850;2023-07-20T03:18:44;2.58;;;0.95;;
22191;SDS011;11261;52.456;10.850;2023-07-20T03:21:12;1.05;;;0.88;;
22191;SDS011;11261;52.456;10.850;2023-07-20T03:23:41;1.40;;;1.02;;
22191;SDS011;11261;52.456;10.850;2023-07-20T03:26:09;1.27;;;1.17;;
22191;SDS011;11261;52.456;10.850;2023-07-20T03:28:38;3.13;;;1.00;;
22191;SDS011;11261;52.456;10.850;2023-07-20T03:31:08;1.60;;;1.30;;
22191;SDS011;11261;52.456;10.850;2023-07-20T03:33:36;2.50;;;1.23;;
22191;SDS011;11261;52.456;10.850;2023-07-20T03:36:04;2.47;;;1.35;;
22191;SDS011;11261;52.456;10.850;2023-07-20T03:38:33;1.33;;;1.10;;
22191;SDS011;11261;52.456;10.850;2023-07-20T03:41:01;1.85;;;1.30;;
22191;SDS011;11261;52.456;10.850;2023-07-20T03:43:29;2.03;;;1.10;;
22191;SDS011;11261;52.456;10.850;2023-07-20T03:45:57;1.35;;;1.05;;
22191;SDS011;11261;52.456;10.850;2023-07-20T03:48:27;2.33;;;1.10;;
22191;SDS011;11261;52.456;10.850;2023-07-20T03:50:55;1.20;;;1.08;;
22191;SDS011;11261;52.456;10.850;2023-07-20T03:53:24;1.27;;;1.17;;
22191;SDS011;11261;52.456;10.850;2023-07-20T03:55:53;1.25;;;1.05;;
22191;SDS011;11261;52.456;10.850;2023-07-20T03:58:21;1.25;;;1.10;;
22191;SDS011;11261;52.456;10.850;2023-07-20T04:00:50;1.15;;;1.00;;
22191;SDS011;11261;52.456;10.850;2023-07-20T04:03:19;1.00;;;0.90;;
22191;SDS011;11261;52.456;10.850;2023-07-20T04:05:50;1.20;;;1.08;;
22191;SDS011;11261;52.456;10.850;2023-07-20T04:08:20;1.55;;;1.20;;
22191;SDS011;11261;52.456;10.850;2023-07-20T04:10:50;2.38;;;1.20;;
22191;SDS011;11261;52.456;10.850;2023-07-20T04:13:18;1.70;;;1.38;;
22191;SDS011;11261;52.456;10.850;2023-07-20T04:15:47;1.50;;;1.02;;
22191;SDS011;11261;52.456;10.850;2023-07-20T04:18:15;1.52;;;1.20;;
22191;SDS011;11261;52.456;10.850;2023-07-20T04:20:44;1.40;;;1.30;;
22191;SDS011;11261;52.456;10.850;2023-07-20T04:23:13;1.77;;;1.23;;
22191;SDS011;11261;52.456;10.850;2023-07-20T04:25:42;1.10;;;1.00;;
22191;SDS011;11261;52.456;10.850;2023-07-20T04:28:11;1.67;;;1.30;;
22191;SDS011;11261;52.456;10.850;2023-07-20T04:30:40;1.20;;;1.10;;
22191;SDS011;11261;52.456;10.850;2023-07-20T04:33:08;1.30;;;1.20;;
22191;SDS011;11261;52.456;10.850;2023-07-20T04:35:48;1.88;;;1.05;;
22191;SDS011;11261;52.456;10.850;2023-07-20T04:38:19;1.60;;;1.20;;
22191;SDS011;11261;52.456;10.850;2023-07-20T04:40:47;1.30;;;1.20;;
22191;SDS011;11261;52.456;10.850;2023-07-20T04:43:17;3.75;;;1.27;;
22191;SDS011;11261;52.456;10.850;2023-07-20T04:45:46;1.48;;;1.20;;
22191;SDS011;11261;52.456;10.850;2023-07-20T04:48:14;1.67;;;1.20;;
22191;SDS011;11261;52.456;10.850;2023-07-20T04:50:45;1.50;;;1.40;;
22191;SDS011;11261;52.456;10.850;2023-07-20T04:53:13;1.77;;;1.10;;
22191;SDS011;11261;52.456;10.850;2023-07-20T04:55:48;2.30;;;1.08;;
22191;SDS011;11261;52.456;10.850;2023-07-20T04:58:19;1.30;;;0.93;;
22191;SDS011;11261;52.456;10.850;2023-07-20T05:00:48;3.38;;;1.30;;
22191;SDS011;11261;52.456;10.850;2023-07-20T05:03:16;1.45;;;1.10;;
22191;SDS011;11261;52.456;10.850;2023-07-20T05:05:46;4.25;;;1.23;;
22191;SDS011;11261;52.456;10.850;2023-07-20T05:08:15;3.28;;;1.17;;
22191;SDS011;11261;52.456;10.850;2023-07-20T05:10:44;2.17;;;1.23;;
22191;SDS011;11261;52.456;10.850;2023-07-20T05:13:13;2.55;;;1.05;;
22191;SDS011;11261;52.456;10.850;2023-07-20T05:15:42;1.67;;;1.00;;
22191;SDS011;11261;52.456;10.850;2023-07-20T05:18:10;1.20;;;1.10;;
22191;SDS011;11261;52.456;10.850;2023-07-20T05:20:38;3.95;;;0.93;;
22191;SDS011;11261;52.456;10.850;2023-07-20T05:23:07;2.45;;;1.10;;
22191;SDS011;11261;52.456;10.850;2023-07-20T05:25:35;1.00;;;0.90;;
22191;SDS011;11261;52.456;10.850;2023-07-20T05:28:04;1.00;;;0.90;;
22191;SDS011;11261;52.456;10.850;2023-07-20T05:30:34;1.15;;;0.88;;
22191;SDS011;11261;52.456;10.850;2023-07-20T05:33:02;1.65;;;1.20;;
22191;SDS011;11261;52.456;10.850;2023-07-20T05:35:30;1.42;;;1.20;;
22191;SDS011;11261;52.456;10.850;2023-07-20T05:37:59;1.23;;;1.02;;
22191;SDS011;11261;52.456;10.850;2023-07-20T05:40:27;1.15;;;0.80;;
22191;SDS011;11261;52.456;10.850;2023-07-20T05:42:55;1.10;;;0.98;;
22191;SDS011;11261;52.456;10.850;2023-07-20T05:45:23;0.98;;;0.88;;
22191;SDS011;11261;52.456;10.850;2023-07-20T05:47:53;2.03;;;0.77;;
22191;SDS011;11261;52.456;10.850;2023-07-20T05:50:21;1.45;;;0.70;;
22191;SDS011;11261;52.456;10.850;2023-07-20T05:52:52;0.98;;;0.85;;
22191;SDS011;11261;52.456;10.850;2023-07-20T05:55:20;1.00;;;0.73;;
22191;SDS011;11261;52.456;10.850;2023-07-20T05:57:48;1.17;;;0.88;;
22191;SDS011;11261;52.456;10.850;2023-07-20T06:00:17;0.77;;;0.77;;
22191;SDS011;11261;52.456;10.850;2023-07-20T06:02:54;1.50;;;0.93;;
22191;SDS011;11261;52.456;10.850;2023-07-20T06:05:23;1.17;;;1.08;;
22191;SDS011;11261;52.456;10.850;2023-07-20T06:07:54;1.20;;;0.80;;
22191;SDS011;11261;52.456;10.850;2023-07-20T06:10:24;0.90;;;0.90;;
22191;SDS011;11261;52.456;10.850;2023-07-20T06:12:53;0.80;;;0.80;;
22191;SDS011;11261;52.456;10.850;2023-07-20T06:15:25;2.30;;;0.82;;
22191;SDS011;11261;52.456;10.850;2023-07-20T06:17:55;1.40;;;1.20;;
22191;SDS011;11261;52.456;10.850;2023-07-20T06:20:25;2.40;;;1.20;;
22191;SDS011;11261;52.456;10.850;2023-07-20T06:22:53;1.75;;;1.20;;
22191;SDS011;11261;52.456;10.850;2023-07-20T06:25:21;3.67;;;1.20;;
22191;SDS011;11261;52.456;10.850;2023-07-20T06:27:50;1.30;;;0.95;;
22191;SDS011;11261;52.456;10.850;2023-07-20T06:30:18;1.92;;;1.20;;
22191;SDS011;11261;52.456;10.850;2023-07-20T06:32:47;1.30;;;1.15;;
22191;SDS011;11261;52.456;10.850;2023-07-20T06:35:17;1.23;;;1.13;;
22191;SDS011;11261;52.456;10.850;2023-07-20T06:37:45;2.53;;;1.60;;
22191;SDS011;11261;52.456;10.850;2023-07-20T06:40:13;3.40;;;1.58;;
22191;SDS011;11261;52.456;10.850;2023-07-20T06:42:44;1.75;;;1.42;;
22191;SDS011;11261;52.456;10.850;2023-07-20T06:45:16;1.33;;;1.10;;
22191;SDS011;11261;52.456;10.850;2023-07-20T06:47:44;2.90;;;1.67;;
22191;SDS011;11261;52.456;10.850;2023-07-20T06:50:13;2.60;;;1.58;;
22191;SDS011;11261;52.456;10.850;2023-07-20T06:52:45;1.85;;;1.35;;
22191;SDS011;11261;52.456;10.850;2023-07-20T06:55:14;1.05;;;0.70;;
22191;SDS011;11261;52.456;10.850;2023-07-20T06:57:49;1.05;;;0.95;;
22191;SDS011;11261;52.456;10.850;2023-07-20T07:00:18;1.17;;;0.80;;
22191;SDS011;11261;52.456;10.850;2023-07-20T07:02:46;0.40;;;0.40;;
22191;SDS011;11261;52.456;10.850;2023-07-20T07:05:16;0.60;;;0.60;;
22191;SDS011;11261;52.456;10.850;2023-07-20T07:07:48;0.85;;;0.68;;
22191;SDS011;11261;52.456;10.850;2023-07-20T07:10:16;1.55;;;0.90;;
22191;SDS011;11261;52.456;10.850;2023-07-20T07:12:45;1.00;;;0.90;;
22191;SDS011;11261;52.456;10.850;2023-07-20T07:15:13;0.60;;;0.60;;
22191;SDS011;11261;52.456;10.850;2023-07-20T07:17:42;2.42;;;0.70;;
22191;SDS011;11261;52.456;10.850;2023-07-20T07:20:11;1.85;;;0.70;;
22191;SDS011;11261;52.456;10.850;2023-07-20T07:22:49;1.98;;;0.70;;
22191;SDS011;11261;52.456;10.850;2023-07-20T07:25:19;0.70;;;0.55;;
22191;SDS011;11261;52.456;10.850;2023-07-20T07:27:50;2.30;;;0.60;;
22191;SDS011;11261;52.456;10.850;2023-07-20T07:30:19;1.05;;;0.55;;
22191;SDS011;11261;52.456;10.850;2023-07-20T07:32:48;0.93;;;0.52;;
22191;SDS011;11261;52.456;10.850;2023-07-20T07:35:17;0.43;;;0.40;;
22191;SDS011;11261;52.456;10.850;2023-07-20T07:37:45;0.60;;;0.60;;
22191;SDS011;11261;52.456;10.850;2023-07-20T07:40:35;2.05;;;0.60;;
22191;SDS011;11261;52.456;10.850;2023-07-20T07:43:03;0.63;;;0.50;;
22191;SDS011;11261;52.456;10.850;2023-07-20T07:45:34;0.80;;;0.47;;
22191;SDS011;11261;52.456;10.850;2023-07-20T07:48:03;1.00;;;0.60;;
22191;SDS011;11261;52.456;10.850;2023-07-20T07:50:31;0.85;;;0.38;;
22191;SDS011;11261;52.456;10.850;2023-07-20T07:53:01;0.90;;;0.60;;
22191;SDS011;11261;52.456;10.850;2023-07-20T07:55:29;1.38;;;0.52;;
22191;SDS011;11261;52.456;10.850;2023-07-20T07:57:57;2.13;;;0.50;;
22191;SDS011;11261;52.456;10.850;2023-07-20T08:00:26;0.50;;;0.50;;
22191;SDS011;11261;52.456;10.850;2023-07-20T08:02:54;1.15;;;0.40;;
22191;SDS011;11261;52.456;10.850;2023-07-20T08:05:23;0.65;;;0.45;;
22191;SDS011;11261;52.456;10.850;2023-07-20T08:07:52;1.95;;;0.30;;
22191;SDS011;11261;52.456;10.850;2023-07-20T08:10:22;0.40;;;0.35;;
22191;SDS011;11261;52.456;10.850;2023-07-20T08:12:50;1.60;;;0.60;;
22191;SDS011;11261;52.456;10.850;2023-07-20T08:15:18;0.50;;;0.32;;
22191;SDS011;11261;52.456;10.850;2023-07-20T08:17:46;0.50;;;0.50;;
22191;SDS011;11261;52.456;10.850;2023-07-20T08:20:18;0.55;;;0.50;;
22191;SDS011;11261;52.456;10.850;2023-07-20T08:22:53;1.45;;;0.60;;
22191;SDS011;11261;52.456;10.850;2023-07-20T08:25:22;0.60;;;0.40;;
22191;SDS011;11261;52.456;10.850;2023-07-20T08:27:51;0.43;;;0.40;;
22191;SDS011;11261;52.456;10.850;2023-07-20T08:30:20;0.40;;;0.40;;
22191;SDS011;11261;52.456;10.850;2023-07-20T08:32:50;0.50;;;0.40;;
22191;SDS011;11261;52.456;10.850;2023-07-20T08:35:18;0.50;;;0.50;;
22191;SDS011;11261;52.456;10.850;2023-07-20T08:37:48;0.60;;;0.57;;
22191;SDS011;11261;52.456;10.850;2023-07-20T08:40:17;0.38;;;0.38;;
22191;SDS011;11261;52.456;10.850;2023-07-20T08:42:46;1.70;;;0.25;;
22191;SDS011;11261;52.456;10.850;2023-07-20T08:45:15;1.15;;;0.40;;
22191;SDS011;11261;52.456;10.850;2023-07-20T08:47:44;1.85;;;0.50;;
22191;SDS011;11261;52.456;10.850;2023-07-20T08:50:15;0.70;;;0.40;;
22191;SDS011;11261;52.456;10.850;2023-07-20T08:52:44;1.35;;;0.40;;
22191;SDS011;11261;52.456;10.850;2023-07-20T08:55:12;0.60;;;0.50;;
22191;SDS011;11261;52.456;10.850;2023-07-20T08:57:40;0.30;;;0.30;;
22191;SDS011;11261;52.456;10.850;2023-07-20T09:00:14;1.67;;;0.50;;
22191;SDS011;11261;52.456;10.850;2023-07-20T09:02:43;1.13;;;0.60;;
22191;SDS011;11261;52.456;10.850;2023-07-20T09:05:14;0.45;;;0.40;;
22191;SDS011;11261;52.456;10.850;2023-07-20T09:07:42;2.13;;;0.60;;
22191;SDS011;11261;52.456;10.850;2023-07-20T09:10:11;1.85;;;0.50;;
22191;SDS011;11261;52.456;10.850;2023-07-20T09:12:40;0.75;;;0.30;;
22191;SDS011;11261;52.456;10.850;2023-07-20T09:15:11;1.10;;;0.50;;
22191;SDS011;11261;52.456;10.850;2023-07-20T09:17:41;0.40;;;0.40;;
22191;SDS011;11261;52.456;10.850;2023-07-20T09:20:14;1.40;;;0.40;;
22191;SDS011;11261;52.456;10.850;2023-07-20T09:22:48;0.50;;;0.43;;
22191;SDS011;11261;52.456;10.850;2023-07-20T09:25:17;0.85;;;0.63;;
22191;SDS011;11261;52.456;10.850;2023-07-20T09:27:48;2.17;;;0.60;;
22191;SDS011;11261;52.456;10.850;2023-07-20T09:30:18;0.85;;;0.43;;
22191;SDS011;11261;52.456;10.850;2023-07-20T09:32:48;0.52;;;0.40;;
22191;SDS011;11261;52.456;10.850;2023-07-20T09:35:20;1.75;;;0.52;;
22191;SDS011;11261;52.456;10.850;2023-07-20T09:37:59;1.40;;;0.50;;
22191;SDS011;11261;52.456;10.850;2023-07-20T09:40:36;21.95;;;3.03;;
22191;SDS011;11261;52.456;10.850;2023-07-20T09:43:08;11.43;;;1.65;;
22191;SDS011;11261;52.456;10.850;2023-07-20T09:45:41;18.75;;;1.63;;
22191;SDS011;11261;52.456;10.850;2023-07-20T09:48:14;1.10;;;0.40;;
22191;SDS011;11261;52.456;10.850;2023-07-20T09:50:48;0.38;;;0.38;;
22191;SDS011;11261;52.456;10.850;2023-07-20T09:53:17;0.77;;;0.40;;
22191;SDS011;11261;52.456;10.850;2023-07-20T09:55:46;0.40;;;0.40;;
22191;SDS011;11261;52.456;10.850;2023-07-20T09:58:15;0.40;;;0.40;;
22191;SDS011;11261;52.456;10.850;2023-07-20T10:00:45;0.95;;;0.40;;
22191;SDS011;11261;52.456;10.850;2023-07-20T10:03:22;0.52;;;0.28;;
22191;SDS011;11261;52.456;10.850;2023-07-20T10:06:02;0.40;;;0.40;;
22191;SDS011;11261;52.456;10.850;2023-07-20T10:08:34;0.40;;;0.40;;
22191;SDS011;11261;52.456;10.850;2023-07-20T10:11:10;1.23;;;0.30;;
22191;SDS011;11261;52.456;10.850;2023-07-20T10:13:43;0.47;;;0.35;;
22191;SDS011;11261;52.456;10.850;2023-07-20T10:16:14;0.20;;;0.20;;
22191;SDS011;11261;52.456;10.850;2023-07-20T10:18:51;1.98;;;0.30;;
22191;SDS011;11261;52.456;10.850;2023-07-20T10:21:26;0.65;;;0.28;;
22191;SDS011;11261;52.456;10.850;2023-07-20T10:23:59;0.98;;;0.50;;
22191;SDS011;11261;52.456;10.850;2023-07-20T10:26:28;0.85;;;0.30;;
22191;SDS011;11261;52.456;10.850;2023-07-20T10:29:02;0.20;;;0.20;;
22191;SDS011;11261;52.456;10.850;2023-07-20T10:31:32;0.40;;;0.30;;
22191;SDS011;11261;52.456;10.850;2023-07-20T10:34:03;0.68;;;0.40;;
22191;SDS011;11261;52.456;10.850;2023-07-20T10:36:31;0.52;;;0.40;;
22191;SDS011;11261;52.456;10.850;2023-07-20T10:39:00;0.73;;;0.30;;
22191;SDS011;11261;52.456;10.850;2023-07-20T10:41:28;1.58;;;0.30;;
22191;SDS011;11261;52.456;10.850;2023-07-20T10:44:02;0.68;;;0.35;;
22191;SDS011;11261;52.456;10.850;2023-07-20T10:46:34;1.58;;;0.40;;
22191;SDS011;11261;52.456;10.850;2023-07-20T10:49:13;0.57;;;0.40;;
22191;SDS011;11261;52.456;10.850;2023-07-20T10:51:42;1.55;;;0.40;;
22191;SDS011;11261;52.456;10.850;2023-07-20T10:57:24;0.50;;;0.35;;
22191;SDS011;11261;52.456;10.850;2023-07-20T11:00:10;1.00;;;0.40;;
22191;SDS011;11261;52.456;10.850;2023-07-20T11:02:47;1.17;;;0.47;;
22191;SDS011;11261;52.456;10.850;2023-07-20T11:05:34;0.35;;;0.35;;
22191;SDS011;11261;52.456;10.850;2023-07-20T11:08:04;1.08;;;0.47;;
22191;SDS011;11261;52.456;10.850;2023-07-20T11:10:36;0.40;;;0.32;;
22191;SDS011;11261;52.456;10.850;2023-07-20T11:13:21;0.63;;;0.40;;
22191;SDS011;11261;52.456;10.850;2023-07-20T11:16:03;1.45;;;0.40;;
22191;SDS011;11261;52.456;10.850;2023-07-20T11:18:33;1.35;;;0.40;;
22191;SDS011;11261;52.456;10.850;2023-07-20T11:21:09;0.40;;;0.40;;
22191;SDS011;11261;52.456;10.850;2023-07-20T11:23:38;0.85;;;0.40;;
22191;SDS011;11261;52.456;10.850;2023-07-20T11:26:08;0.40;;;0.30;;
22191;SDS011;11261;52.456;10.850;2023-07-20T11:28:37;1.92;;;0.50;;
22191;SDS011;11261;52.456;10.850;2023-07-20T11:31:05;0.52;;;0.40;;
22191;SDS011;11261;52.456;10.850;2023-07-20T11:33:34;0.30;;;0.30;;
22191;SDS011;11261;52.456;10.850;2023-07-20T11:36:02;1.00;;;0.40;;
22191;SDS011;11261;52.456;10.850;2023-07-20T11:38:53;0.75;;;0.32;;
22191;SDS011;11261;52.456;10.850;2023-07-20T11:41:21;0.85;;;0.50;;
22191;SDS011;11261;52.456;10.850;2023-07-20T11:43:50;0.63;;;0.43;;
22191;SDS011;11261;52.456;10.850;2023-07-20T11:46:18;1.00;;;0.32;;
22191;SDS011;11261;52.456;10.850;2023-07-20T11:48:47;3.45;;;0.63;;
22191;SDS011;11261;52.456;10.850;2023-07-20T11:51:15;1.10;;;0.50;;
22191;SDS011;11261;52.456;10.850;2023-07-20T11:53:44;0.93;;;0.40;;
22191;SDS011;11261;52.456;10.850;2023-07-20T11:56:16;2.30;;;0.40;;
22191;SDS011;11261;52.456;10.850;2023-07-20T11:58:44;1.45;;;0.50;;
22191;SDS011;11261;52.456;10.850;2023-07-20T12:01:13;1.30;;;0.60;;
22191;SDS011;11261;52.456;10.850;2023-07-20T12:03:41;0.95;;;0.52;;
22191;SDS011;11261;52.456;10.850;2023-07-20T12:06:11;0.65;;;0.50;;
22191;SDS011;11261;52.456;10.850;2023-07-20T12:08:42;0.95;;;0.43;;
22191;SDS011;11261;52.456;10.850;2023-07-20T12:11:11;2.80;;;0.73;;
22191;SDS011;11261;52.456;10.850;2023-07-20T12:13:41;2.05;;;0.50;;
22191;SDS011;11261;52.456;10.850;2023-07-20T12:16:11;0.80;;;0.80;;
22191;SDS011;11261;52.456;10.850;2023-07-20T12:18:41;1.00;;;0.40;;
22191;SDS011;11261;52.456;10.850;2023-07-20T12:21:10;2.90;;;0.40;;
22191;SDS011;11261;52.456;10.850;2023-07-20T12:23:39;3.80;;;0.60;;
22191;SDS011;11261;52.456;10.850;2023-07-20T12:26:09;0.70;;;0.50;;
22191;SDS011;11261;52.456;10.850;2023-07-20T12:28:41;0.38;;;0.38;;
22191;SDS011;11261;52.456;10.850;2023-07-20T12:31:10;0.57;;;0.45;;
22191;SDS011;11261;52.456;10.850;2023-07-20T12:33:40;1.55;;;0.50;;
22191;SDS011;11261;52.456;10.850;2023-07-20T12:36:08;1.35;;;0.50;;
22191;SDS011;11261;52.456;10.850;2023-07-20T12:38:37;0.55;;;0.40;;
22191;SDS011;11261;52.456;10.850;2023-07-20T12:41:05;0.82;;;0.40;;
22191;SDS011;11261;52.456;10.850;2023-07-20T12:43:33;1.45;;;0.40;;
22191;SDS011;11261;52.456;10.850;2023-07-20T12:46:03;1.23;;;0.60;;
22191;SDS011;11261;52.456;10.850;2023-07-20T12:48:32;2.97;;;0.60;;
22191;SDS011;11261;52.456;10.850;2023-07-20T12:51:01;1.33;;;0.68;;
22191;SDS011;11261;52.456;10.850;2023-07-20T12:53:30;0.70;;;0.50;;
22191;SDS011;11261;52.456;10.850;2023-07-20T12:55:59;0.57;;;0.57;;
22191;SDS011;11261;52.456;10.850;2023-07-20T12:58:48;1.25;;;0.70;;
22191;SDS011;11261;52.456;10.850;2023-07-20T13:01:18;1.42;;;0.57;;
22191;SDS011;11261;52.456;10.850;2023-07-20T13:03:46;1.10;;;0.60;;
22191;SDS011;11261;52.456;10.850;2023-07-20T13:06:17;2.67;;;0.60;;
22191;SDS011;11261;52.456;10.850;2023-07-20T13:08:48;3.30;;;0.60;;
22191;SDS011;11261;52.456;10.850;2023-07-20T13:11:17;1.08;;;0.50;;
22191;SDS011;11261;52.456;10.850;2023-07-20T13:13:45;1.65;;;0.60;;
22191;SDS011;11261;52.456;10.850;2023-07-20T13:16:14;0.70;;;0.52;;
22191;SDS011;11261;52.456;10.850;2023-07-20T13:18:44;0.85;;;0.50;;
22191;SDS011;11261;52.456;10.850;2023-07-20T13:21:13;1.58;;;0.73;;
22191;SDS011;11261;52.456;10.850;2023-07-20T13:23:41;0.60;;;0.60;;
22191;SDS011;11261;52.456;10.850;2023-07-20T13:26:09;2.13;;;0.50;;
22191;SDS011;11261;52.456;10.850;2023-07-20T13:28:38;0.95;;;0.60;;
22191;SDS011;11261;52.456;10.850;2023-07-20T13:31:08;2.22;;;1.00;;
22191;SDS011;11261;52.456;10.850;2023-07-20T13:33:39;0.90;;;0.70;;
22191;SDS011;11261;52.456;10.850;2023-07-20T13:36:09;1.42;;;0.70;;
22191;SDS011;11261;52.456;10.850;2023-07-20T13:38:38;0.77;;;0.50;;
22191;SDS011;11261;52.456;10.850;2023-07-20T13:41:06;0.80;;;0.57;;
22191;SDS011;11261;52.456;10.850;2023-07-20T13:43:34;1.25;;;0.77;;
22191;SDS011;11261;52.456;10.850;2023-07-20T13:46:04;1.13;;;0.70;;
22191;SDS011;11261;52.456;10.850;2023-07-20T13:48:32;3.15;;;0.77;;
22191;SDS011;11261;52.456;10.850;2023-07-20T13:51:03;1.05;;;0.60;;
22191;SDS011;11261;52.456;10.850;2023-07-20T13:53:32;0.80;;;0.60;;
22191;SDS011;11261;52.456;10.850;2023-07-20T13:56:04;2.15;;;0.75;;
22191;SDS011;11261;52.456;10.850;2023-07-20T13:58:35;2.28;;;0.75;;
22191;SDS011;11261;52.456;10.850;2023-07-20T14:01:06;1.25;;;0.60;;
22191;SDS011;11261;52.456;10.850;2023-07-20T14:03:34;0.60;;;0.60;;
22191;SDS011;11261;52.456;10.850;2023-07-20T14:06:04;2.33;;;1.27;;
22191;SDS011;11261;52.456;10.850;2023-07-20T14:08:36;2.28;;;0.70;;
22191;SDS011;11261;52.456;10.850;2023-07-20T14:11:05;0.80;;;0.60;;
22191;SDS011;11261;52.456;10.850;2023-07-20T14:13:36;2.83;;;0.73;;
22191;SDS011;11261;52.456;10.850;2023-07-20T14:16:13;2.17;;;1.13;;
22191;SDS011;11261;52.456;10.850;2023-07-20T14:18:41;3.83;;;0.90;;
22191;SDS011;11261;52.456;10.850;2023-07-20T14:21:14;2.58;;;0.93;;
22191;SDS011;11261;52.456;10.850;2023-07-20T14:23:46;1.20;;;0.70;;
22191;SDS011;11261;52.456;10.850;2023-07-20T14:26:14;5.25;;;1.25;;
22191;SDS011;11261;52.456;10.850;2023-07-20T14:28:43;1.02;;;0.60;;
22191;SDS011;11261;52.456;10.850;2023-07-20T14:31:11;0.60;;;0.60;;
22191;SDS011;11261;52.456;10.850;2023-07-20T14:33:40;1.42;;;0.60;;
22191;SDS011;11261;52.456;10.850;2023-07-20T14:36:08;0.82;;;0.63;;
22191;SDS011;11261;52.456;10.850;2023-07-20T14:38:37;1.98;;;0.70;;
22191;SDS011;11261;52.456;10.850;2023-07-20T14:41:08;1.25;;;0.60;;
22191;SDS011;11261;52.456;10.850;2023-07-20T14:43:38;0.77;;;0.73;;
22191;SDS011;11261;52.456;10.850;2023-07-20T14:46:06;2.35;;;0.60;;
22191;SDS011;11261;52.456;10.850;2023-07-20T14:48:34;3.60;;;0.70;;
22191;SDS011;11261;52.456;10.850;2023-07-20T14:51:03;0.52;;;0.50;;
22191;SDS011;11261;52.456;10.850;2023-07-20T14:53:31;2.22;;;0.90;;
22191;SDS011;11261;52.456;10.850;2023-07-20T14:56:02;1.08;;;0.60;;